Time;durP1;ratioP1;P1;durP2;ratioP2;P2;SDS_P1;SDS_P2;PMS_P1;PMS_P2;Temp;Humidity;BMP_temperature;BMP_pressure;BME280_temperature;BME280_humidity;BME280_pressure;Samples;Min_cycle;Max_cycle;Signal;HPM_P1;HPM_P2
2022/06/07 00:02:16;;;;;;;;;;;;;;;23.19;65.05;101249.28;5068063;28;19912;-80
2022/06/07 00:04:41;;;;;;;;;;;;;;;23.13;65.09;101247.44;5072443;28;19917;-80
2022/06/07 00:07:08;;;;;;;;;;;;;;;23.13;65.10;101252.75;5088004;28;20416;-81
2022/06/07 00:09:33;;;;;;;;;;;;;;;23.12;65.09;101248.31;5071460;28;19920;-80
2022/06/07 00:12:00;;;;;;;;;;;;;;;23.11;64.93;101253.63;5089682;28;20007;-80
2022/06/07 00:14:25;;;;;;;;;;;;;;;23.14;64.92;101257.22;5058277;28;20344;-81
2022/06/07 00:16:51;;;;;;;;;;;;;;;23.11;64.99;101249.22;5063937;28;19917;-80
2022/06/07 00:19:16;;;;;;;;;;;;;;;23.10;64.93;101246.53;5070825;28;20421;-81
2022/06/07 00:21:42;;;;;;;;;;;;;;;23.12;64.97;101248.31;5086070;28;19912;-81
2022/06/07 00:24:07;;;;;;;;;;;;;;;23.11;64.86;101242.97;5072510;28;19923;-81
2022/06/07 00:26:33;;;;;;;;;;;;;;;23.13;64.86;101241.22;5067786;28;19909;-80
2022/06/07 00:28:59;;;;;;;;;;;;;;;23.09;64.91;101242.97;5073347;28;19924;-80
2022/06/07 00:31:25;;;;;;;;;;;;;;;23.05;64.80;101235.84;5089840;28;19999;-81
2022/06/07 00:33:51;;;;;;;;;;;;;;;23.09;64.66;101239.41;5064285;28;20552;-80
2022/06/07 00:36:16;;;;;;;;;;;;;;;23.07;64.72;101236.75;5076247;28;20619;-82
2022/06/07 00:38:43;;;;;;;;;;;;;;;23.08;64.63;101232.31;5073437;28;20293;-80
2022/06/07 00:41:09;;;;;;;;;;;;;;;23.09;64.57;101235.00;5060227;28;20286;-81
2022/06/07 00:43:34;;;;;;;;;;;;;;;23.02;64.55;101237.56;5071590;28;20377;-81
2022/06/07 00:46:00;;;;;;;;;;;;;;;23.02;64.80;101240.22;5062874;28;20283;-81
2022/06/07 00:48:25;;;;;;;;;;;;;;;23.01;64.67;101241.09;5064430;28;19918;-81
2022/06/07 00:50:52;;;;;;;;;;;;;;;23.01;64.69;101238.41;5085313;28;19962;-81
2022/06/07 00:53:44;;;;;;;;;;;;;;;23.02;64.61;101240.22;5074135;28;20022;-82
2022/06/07 00:56:09;;;;;;;;;;;;;;;23.03;64.46;101239.34;5063248;28;19916;-81
2022/06/07 00:58:36;;;;;;;;;;;;;;;23.01;64.44;101239.34;5058296;28;20072;-81
2022/06/07 01:01:01;;;;;;;;;;;;;;;23.00;64.29;101234.84;5071993;28;20351;-81
2022/06/07 01:03:27;;;;;;;;;;;;;;;23.01;64.35;101227.75;5076474;28;19915;-81
2022/06/07 01:05:53;;;;;;;;;;;;;;;22.98;64.53;101233.94;5073739;28;19912;-81
2022/06/07 01:11:03;;;;;;;;;;;;;;;22.96;64.23;101225.94;5067516;28;20305;-81
2022/06/07 01:13:31;;;;;;;;;;;;;;;22.95;64.22;101236.56;5072292;28;19908;-81
2022/06/07 01:15:58;;;;;;;;;;;;;;;22.95;63.98;101229.47;5065049;28;20401;-81
2022/06/07 01:18:23;;;;;;;;;;;;;;;22.91;64.24;101232.97;5076087;28;20015;-80
2022/06/07 01:21:07;;;;;;;;;;;;;;;22.91;64.26;101229.44;5068233;28;20065;-80
2022/06/07 01:23:32;;;;;;;;;;;;;;;22.91;63.97;101232.97;5072537;28;19920;-79
2022/06/07 01:26:01;;;;;;;;;;;;;;;22.89;63.84;101221.41;5059778;28;19973;-80
2022/06/07 01:28:26;;;;;;;;;;;;;;;22.92;63.87;101223.22;5071803;28;19916;-80
2022/06/07 01:30:56;;;;;;;;;;;;;;;22.92;64.02;101221.47;5069376;28;19916;-81
2022/06/07 01:33:21;;;;;;;;;;;;;;;22.90;63.90;101215.22;5076281;28;19912;-81
2022/06/07 01:35:48;;;;;;;;;;;;;;;22.91;63.69;101216.09;5075579;28;19923;-81
2022/06/07 01:38:14;;;;;;;;;;;;;;;22.86;63.78;101204.50;5079018;28;20010;-81
2022/06/07 01:43:23;;;;;;;;;;;;;;;22.90;63.85;101209.91;5060841;28;19972;-81
2022/06/07 01:45:49;;;;;;;;;;;;;;;22.88;63.64;101209.00;5085252;28;20018;-80
2022/06/07 01:48:14;;;;;;;;;;;;;;;22.83;63.71;101215.13;5073489;28;20002;-81
2022/06/07 01:50:40;;;;;;;;;;;;;;;22.84;63.78;101208.91;5072535;28;19909;-81
2022/06/07 01:53:05;;;;;;;;;;;;;;;22.85;63.77;101219.59;5067683;28;19912;-81
2022/06/07 01:55:31;;;;;;;;;;;;;;;22.84;63.67;101215.16;5074532;28;19920;-81
2022/06/07 01:57:56;;;;;;;;;;;;;;;22.82;63.64;101211.59;5067877;28;20270;-81
2022/06/07 02:00:22;;;;;;;;;;;;;;;22.83;63.89;101216.03;5069833;28;19916;-81
2022/06/07 02:02:47;;;;;;;;;;;;;;;22.85;63.67;101218.72;5064841;28;19916;-81
2022/06/07 02:05:13;;;;;;;;;;;;;;;22.82;63.80;101213.31;5081011;28;20385;-81
2022/06/07 02:07:39;;;;;;;;;;;;;;;22.82;63.37;101223.97;5059769;28;19932;-81
2022/06/07 02:10:04;;;;;;;;;;;;;;;22.81;63.57;101224.88;5067543;28;19963;-81
2022/06/07 02:12:30;;;;;;;;;;;;;;;22.80;63.63;101233.75;5083753;28;19913;-81
2022/06/07 02:14:55;;;;;;;;;;;;;;;22.81;63.50;101235.53;5062528;28;19924;-81
2022/06/07 02:17:21;;;;;;;;;;;;;;;22.80;63.51;101239.06;5072449;28;20007;-82
2022/06/07 02:19:46;;;;;;;;;;;;;;;22.80;63.47;101244.41;5084418;28;19911;-81
2022/06/07 02:22:12;;;;;;;;;;;;;;;22.81;63.84;101248.84;5061535;28;19995;-81
2022/06/07 02:24:37;;;;;;;;;;;;;;;22.82;63.40;101235.56;5081980;28;19973;-81
2022/06/07 02:27:04;;;;;;;;;;;;;;;22.75;63.73;101239.91;5075492;28;20384;-81
2022/06/07 02:29:33;;;;;;;;;;;;;;;22.79;63.71;101240.81;5077789;28;20015;-81
2022/06/07 02:32:01;;;;;;;;;;;;;;;22.83;63.76;101239.09;5064110;28;19908;-81
2022/06/07 02:34:27;;;;;;;;;;;;;;;22.82;63.50;101240.88;5080781;28;20317;-81
2022/06/07 02:36:53;;;;;;;;;;;;;;;22.82;63.78;101247.94;5078391;28;19935;-80
2022/06/07 02:39:19;;;;;;;;;;;;;;;22.79;63.74;101255.91;5074555;28;19924;-81
2022/06/07 02:41:44;;;;;;;;;;;;;;;22.76;63.85;101248.78;5061606;28;19912;-81
2022/06/07 02:44:10;;;;;;;;;;;;;;;22.71;63.55;101242.50;5080755;28;19927;-80
2022/06/07 02:46:35;;;;;;;;;;;;;;;22.75;63.63;101242.59;5071234;28;19913;-81
2022/06/07 02:49:01;;;;;;;;;;;;;;;22.74;63.59;101242.56;5081035;28;19969;-81
2022/06/07 02:51:26;;;;;;;;;;;;;;;22.74;63.84;101247.88;5058040;28;19917;-82
2022/06/07 02:53:52;;;;;;;;;;;;;;;22.72;63.81;101247.84;5072156;28;20324;-82
2022/06/07 02:56:18;;;;;;;;;;;;;;;22.74;63.73;101258.53;5086930;28;19912;-82
2022/06/07 02:58:43;;;;;;;;;;;;;;;22.72;63.70;101250.50;5064265;28;20378;-82
2022/06/07 03:01:09;;;;;;;;;;;;;;;22.74;63.65;101253.19;5056277;28;19981;-81
2022/06/07 03:03:34;;;;;;;;;;;;;;;22.70;63.85;101257.59;5064754;28;19916;-81
2022/06/07 03:06:00;;;;;;;;;;;;;;;22.71;64.04;101262.06;5082035;28;19917;-81
2022/06/07 03:08:26;;;;;;;;;;;;;;;22.69;63.94;101260.22;5071162;28;19911;-81
2022/06/07 03:10:52;;;;;;;;;;;;;;;22.73;63.80;101259.38;5084314;28;19919;-80
2022/06/07 03:13:17;;;;;;;;;;;;;;;22.74;63.99;101258.53;5095541;28;19912;-80
2022/06/07 03:15:43;;;;;;;;;;;;;;;22.70;63.98;101252.25;5064823;28;19998;-81
2022/06/07 03:18:09;;;;;;;;;;;;;;;22.69;64.07;101261.16;5084899;28;19916;-81
2022/06/07 03:20:34;;;;;;;;;;;;;;;22.69;64.05;101258.47;5081679;28;19913;-81
2022/06/07 03:23:00;;;;;;;;;;;;;;;22.69;64.13;101255.81;5058257;28;19916;-81
2022/06/07 03:25:25;;;;;;;;;;;;;;;22.68;63.97;101254.00;5078036;28;19916;-81
2022/06/07 03:27:51;;;;;;;;;;;;;;;22.66;64.27;101258.44;5068589;28;20309;-81
2022/06/07 03:30:16;;;;;;;;;;;;;;;22.66;64.21;101254.88;5062835;28;20310;-80
2022/06/07 03:32:42;;;;;;;;;;;;;;;22.66;64.26;101261.09;5056227;28;20337;-80
2022/06/07 03:35:08;;;;;;;;;;;;;;;22.65;64.34;101267.31;5062534;28;20389;-81
2022/06/07 03:37:34;;;;;;;;;;;;;;;22.64;64.25;101273.47;5068586;28;19912;-80
2022/06/07 03:39:59;;;;;;;;;;;;;;;22.64;64.18;101270.81;5068747;28;19923;-80
2022/06/07 03:42:24;;;;;;;;;;;;;;;22.62;64.45;101271.69;5102375;28;19912;-81
2022/06/07 03:44:50;;;;;;;;;;;;;;;22.63;64.45;101270.81;5072062;28;20374;-81
2022/06/07 03:47:16;;;;;;;;;;;;;;;22.63;64.31;101253.06;5062056;28;20302;-80
2022/06/07 03:49:41;;;;;;;;;;;;;;;22.59;64.43;101253.03;5076664;28;19996;-80
2022/06/07 03:52:07;;;;;;;;;;;;;;;22.62;64.45;101256.59;5072199;28;19916;-81
2022/06/07 03:54:32;;;;;;;;;;;;;;;22.58;64.43;101249.44;5082310;28;19915;-81
2022/06/07 03:56:58;;;;;;;;;;;;;;;22.62;64.47;101263.69;5075581;28;19959;-81
2022/06/07 03:59:23;;;;;;;;;;;;;;;22.61;64.67;101246.84;5083764;28;19908;-81
2022/06/07 04:01:50;;;;;;;;;;;;;;;22.60;64.51;101250.38;5077856;28;20290;-81
2022/06/07 04:04:16;;;;;;;;;;;;;;;22.63;64.44;101252.19;5081300;28;19952;-81
2022/06/07 04:08:10;;;;;;;;;;;;;;;22.59;64.84;101245.94;5072274;28;19959;-81
2022/06/07 04:09:27;;;;;;;;;;;;;;;22.60;64.71;101245.03;5069283;28;20007;-81
2022/06/07 04:11:52;;;;;;;;;;;;;;;22.62;64.57;101247.72;5069954;28;19958;-81
2022/06/07 04:14:18;;;;;;;;;;;;;;;22.60;64.68;101246.81;5073502;28;20027;-82
2022/06/07 04:16:43;;;;;;;;;;;;;;;22.57;64.66;101250.34;5061416;28;19947;-82
2022/06/07 04:19:09;;;;;;;;;;;;;;;22.58;64.69;101254.78;5074056;28;19966;-81
2022/06/07 04:21:34;;;;;;;;;;;;;;;22.53;64.77;101249.41;5074771;28;19912;-81
2022/06/07 04:23:59;;;;;;;;;;;;;;;22.55;64.77;101249.44;5073562;28;19920;-81
2022/06/07 04:26:26;;;;;;;;;;;;;;;22.56;64.74;101251.19;5055665;28;20388;-82
2022/06/07 04:28:52;;;;;;;;;;;;;;;22.53;64.92;101257.38;5068507;28;19916;-81
2022/06/07 04:31:21;;;;;;;;;;;;;;;22.55;64.81;101266.28;5060982;28;19912;-81
2022/06/07 04:33:47;;;;;;;;;;;;;;;22.54;64.91;101266.25;5074339;28;19923;-81
2022/06/07 04:36:19;;;;;;;;;;;;;;;22.56;64.93;101268.09;5071719;28;19912;-81
2022/06/07 04:38:45;;;;;;;;;;;;;;;22.58;64.64;101251.22;5072524;28;20008;-80
2022/06/07 04:41:12;;;;;;;;;;;;;;;22.54;64.97;101256.53;5073969;28;19918;-81
2022/06/07 04:43:38;;;;;;;;;;;;;;;22.52;64.82;101254.69;5074293;28;19916;-81
2022/06/07 04:46:07;;;;;;;;;;;;;;;22.52;64.91;101247.63;5072629;28;19908;-81
2022/06/07 04:48:33;;;;;;;;;;;;;;;22.52;64.68;101238.72;5071363;28;19913;-82
2022/06/07 04:51:02;;;;;;;;;;;;;;;22.51;65.10;101242.28;5052778;28;19962;-82
2022/06/07 04:53:28;;;;;;;;;;;;;;;22.54;65.06;101250.28;5054727;28;19912;-82
2022/06/07 04:55:53;;;;;;;;;;;;;;;22.51;64.72;101247.59;5073873;28;20227;-82
2022/06/07 04:58:19;;;;;;;;;;;;;;;22.50;64.97;101249.38;5056033;28;19936;-82
2022/06/07 05:00:44;;;;;;;;;;;;;;;22.50;65.15;101243.13;5072064;28;19916;-81
2022/06/07 05:03:10;;;;;;;;;;;;;;;22.47;65.19;101245.78;5073719;28;20356;-82
2022/06/07 05:05:35;;;;;;;;;;;;;;;22.46;65.09;101251.97;5069739;28;20365;-82
2022/06/07 05:08:01;;;;;;;;;;;;;;;22.45;65.06;101256.38;5062886;28;19966;-82
2022/06/07 05:10:27;;;;;;;;;;;;;;;22.44;65.48;101259.94;5042473;28;19916;-81
2022/06/07 05:12:52;;;;;;;;;;;;;;;22.45;65.39;101259.03;5071379;28;19912;-81
2022/06/07 05:15:18;;;;;;;;;;;;;;;22.47;65.32;101257.31;5064609;28;20333;-81
2022/06/07 05:17:45;;;;;;;;;;;;;;;22.49;65.39;101249.34;5069591;28;20002;-81
2022/06/07 05:20:11;;;;;;;;;;;;;;;22.45;65.38;101256.38;5069147;28;19923;-81
2022/06/07 05:22:36;;;;;;;;;;;;;;;22.46;65.43;101262.63;5064766;28;19913;-81
2022/06/07 05:25:02;;;;;;;;;;;;;;;22.43;65.40;101255.47;5067550;28;19927;-81
2022/06/07 05:27:27;;;;;;;;;;;;;;;22.44;65.22;101257.28;5073226;28;19908;-81
2022/06/07 05:29:54;;;;;;;;;;;;;;;22.42;65.21;101266.13;5059228;28;20457;-82
2022/06/07 05:32:20;;;;;;;;;;;;;;;22.43;65.25;101255.47;5083924;28;20465;-81
2022/06/07 05:34:45;;;;;;;;;;;;;;;22.45;65.25;101259.03;5070158;28;19912;-81
2022/06/07 05:37:11;;;;;;;;;;;;;;;;;;5058713;28;19938;-80
2022/06/07 05:39:36;;;;;;;;;;;;;;;22.45;65.32;101263.47;5058318;28;19917;-81
2022/06/07 05:42:02;;;;;;;;;;;;;;;22.46;65.27;101251.97;5057233;28;19971;-81
2022/06/07 05:44:27;;;;;;;;;;;;;;;22.44;65.29;101261.72;5070893;28;20374;-81
2022/06/07 05:46:52;;;;;;;;;;;;;;;;;;5063683;28;19908;-81
2022/06/07 05:49:18;;;;;;;;;;;;;;;22.44;65.27;101262.59;5069786;28;19912;-80
2022/06/07 05:51:43;;;;;;;;;;;;;;;;;;5052959;28;19919;-80
2022/06/07 05:54:09;;;;;;;;;;;;;;;22.41;65.76;101259.88;5060498;28;19915;-81
2022/06/07 05:56:35;;;;;;;;;;;;;;;22.36;65.76;101257.16;5069778;28;19908;-81
2022/06/07 05:59:00;;;;;;;;;;;;;;;22.37;65.54;101250.06;5071180;28;19921;-81
2022/06/07 06:01:26;;;;;;;;;;;;;;;22.38;65.73;101254.53;5058050;28;19918;-81
2022/06/07 06:03:54;;;;;;;;;;;;;;;22.35;65.88;101255.38;5069147;28;19913;-81
2022/06/07 06:06:19;;;;;;;;;;;;;;;22.33;65.82;101257.13;5070643;28;19930;-81
2022/06/07 06:11:28;;;;;;;;;;;;;;;22.39;65.79;101253.63;5061076;28;19915;-82
2022/06/07 06:13:55;;;;;;;;;;;;;;;;;;5080849;28;20345;-82
2022/06/07 06:16:21;;;;;;;;;;;;;;;22.39;65.79;101250.09;5052225;28;19975;-82
2022/06/07 06:18:47;;;;;;;;;;;;;;;22.39;65.63;101244.78;5067295;28;19909;-82
2022/06/07 06:21:12;;;;;;;;;;;;;;;22.40;65.63;101243.91;5071233;28;19932;-82
2022/06/07 06:23:38;;;;;;;;;;;;;;;22.38;65.60;101241.22;5065447;28;19913;-82
2022/06/07 06:26:10;;;;;;;;;;;;;;;22.39;65.61;101243.00;5057888;28;19947;-82
2022/06/07 06:28:35;;;;;;;;;;;;;;;22.36;65.62;101240.31;5060423;28;19908;-82
2022/06/07 06:31:01;;;;;;;;;;;;;;;22.31;65.71;101244.69;5065844;28;19908;-82
2022/06/07 06:33:27;;;;;;;;;;;;;;;22.38;65.56;101246.53;5077407;28;19908;-82
2022/06/07 06:35:53;;;;;;;;;;;;;;;22.34;65.53;101242.06;5071889;28;20351;-82
2022/06/07 06:38:19;;;;;;;;;;;;;;;22.38;65.25;101243.88;5064339;28;19915;-83
2022/06/07 06:40:45;;;;;;;;;;;;;;;22.34;65.33;101244.72;5066125;28;19912;-82
2022/06/07 06:43:11;;;;;;;;;;;;;;;22.34;65.23;101239.41;5051325;28;20420;-82
2022/06/07 06:45:37;;;;;;;;;;;;;;;22.35;65.22;101236.75;5079383;28;19908;-81
2022/06/07 06:48:02;;;;;;;;;;;;;;;22.35;65.02;101236.75;5057465;28;19915;-81
2022/06/07 06:50:28;;;;;;;;;;;;;;;22.37;64.98;101239.41;5064381;28;20464;-80
2022/06/07 06:52:53;;;;;;;;;;;;;;;22.38;65.12;101227.03;5051564;28;20000;-81
2022/06/07 06:55:19;;;;;;;;;;;;;;;22.38;65.06;101229.69;5069100;28;20309;-81
2022/06/07 06:57:46;;;;;;;;;;;;;;;22.41;64.86;101233.25;5070581;28;19908;-81
2022/06/07 07:00:12;;;;;;;;;;;;;;;22.38;65.01;101235.91;5070841;28;20424;-81
2022/06/07 07:02:38;;;;;;;;;;;;;;;22.34;65.13;101221.66;5071264;28;19956;-80
2022/06/07 07:05:03;;;;;;;;;;;;;;;22.34;65.06;101223.44;5071687;28;20381;-81
2022/06/07 07:07:29;;;;;;;;;;;;;;;22.28;65.04;101234.88;5071127;28;19951;-81
2022/06/07 07:09:55;;;;;;;;;;;;;;;22.27;65.15;101226.91;5071517;28;19930;-81
2022/06/07 07:12:21;;;;;;;;;;;;;;;22.25;65.28;101224.22;5071039;28;19938;-81
2022/06/07 07:14:48;;;;;;;;;;;;;;;22.20;65.53;101220.53;5071441;28;19930;-81
2022/06/07 07:17:14;;;;;;;;;;;;;;;22.26;65.23;101223.31;5075458;28;20282;-80
2022/06/07 07:19:39;;;;;;;;;;;;;;;22.28;65.16;101226.00;5075900;28;19957;-82
2022/06/07 07:22:05;;;;;;;;;;;;;;;22.28;65.11;101226.00;5075233;28;19909;-80
2022/06/07 07:24:30;;;;;;;;;;;;;;;22.22;65.15;101236.53;5074107;28;19917;-80
2022/06/07 07:26:58;;;;;;;;;;;;;;;22.22;65.07;101233.88;5074169;28;19909;-80
2022/06/07 07:29:24;;;;;;;;;;;;;;;22.24;65.04;101238.38;5074646;28;19908;-81
2022/06/07 07:31:50;;;;;;;;;;;;;;;22.26;64.93;101241.06;5075707;28;19908;-80
2022/06/07 07:34:16;;;;;;;;;;;;;;;22.23;65.03;101236.59;5074758;28;20304;-80
2022/06/07 07:36:42;;;;;;;;;;;;;;;22.23;65.21;101244.56;5075472;28;20258;-80
2022/06/07 07:39:08;;;;;;;;;;;;;;;22.22;65.16;101241.84;5074717;28;19966;-80
2022/06/07 07:41:35;;;;;;;;;;;;;;;22.23;65.04;101241.91;5074107;28;19908;-81
2022/06/07 07:44:01;;;;;;;;;;;;;;;22.22;65.09;101239.19;5073862;28;20471;-80
2022/06/07 07:46:29;;;;;;;;;;;;;;;22.21;65.05;101237.41;5075215;28;20393;-81
2022/06/07 07:48:55;;;;;;;;;;;;;;;22.22;65.04;101236.53;5075305;28;20368;-81
2022/06/07 07:51:21;;;;;;;;;;;;;;;22.21;65.11;101232.97;5059020;28;19956;-82
2022/06/07 07:53:47;;;;;;;;;;;;;;;22.23;64.99;101233.94;5059942;28;19912;-81
2022/06/07 07:56:13;;;;;;;;;;;;;;;22.24;64.97;101232.16;5063839;28;20381;-81
2022/06/07 07:58:38;;;;;;;;;;;;;;;22.23;64.98;101231.28;5068711;28;19912;-81
2022/06/07 08:01:08;;;;;;;;;;;;;;;22.24;64.82;101237.47;5064310;28;19919;-81
2022/06/07 08:03:34;;;;;;;;;;;;;;;22.28;64.65;101229.56;5057552;28;19912;-81
2022/06/07 08:05:59;;;;;;;;;;;;;;;22.38;64.50;101221.72;5062694;28;20030;-81
2022/06/07 08:08:24;;;;;;;;;;;;;;;22.26;64.52;101223.31;5061383;28;19909;-81
2022/06/07 08:10:50;;;;;;;;;;;;;;;22.33;64.37;101222.53;5060235;28;19912;-81
2022/06/07 08:13:16;;;;;;;;;;;;;;;22.31;64.14;101223.41;5075058;28;19915;-81
2022/06/07 08:15:42;;;;;;;;;;;;;;;22.29;64.23;101215.41;5073473;28;19961;-81
2022/06/07 08:18:07;;;;;;;;;;;;;;;22.27;64.19;101216.25;5065173;28;20369;-81
2022/06/07 08:20:33;;;;;;;;;;;;;;;22.27;64.19;101225.13;5070172;28;19954;-81
2022/06/07 08:22:59;;;;;;;;;;;;;;;22.25;64.46;101223.31;5068956;28;20369;-81
2022/06/07 08:25:24;;;;;;;;;;;;;;;22.26;64.74;101218.00;5054498;28;19958;-81
2022/06/07 08:27:50;;;;;;;;;;;;;;;22.39;64.38;101216.38;5053612;28;19917;-81
2022/06/07 08:30:15;;;;;;;;;;;;;;;22.49;64.31;101220.94;5054463;28;19913;-81
2022/06/07 08:32:41;;;;;;;;;;;;;;;22.50;64.07;101222.75;5071370;28;19915;-81
2022/06/07 08:37:50;;;;;;;;;;;;;;;22.35;64.74;101212.81;5059805;28;19985;-80
2022/06/07 08:40:35;;;;;;;;;;;;;;;22.36;64.75;101213.69;5064456;28;20369;-81
2022/06/07 08:43:04;;;;;;;;;;;;;;;22.46;64.30;101210.28;5084902;28;20007;-80
2022/06/07 08:45:35;;;;;;;;;;;;;;;22.51;64.08;101205.91;5065292;28;19944;-81
2022/06/07 08:48:04;;;;;;;;;;;;;;;22.36;64.60;101209.25;5070433;28;20282;-81
2022/06/07 08:50:34;;;;;;;;;;;;;;;22.46;64.34;101212.06;5056751;28;19916;-81
2022/06/07 08:53:01;;;;;;;;;;;;;;;22.30;64.80;101203.84;5053841;28;19979;-81
2022/06/07 08:55:29;;;;;;;;;;;;;;;22.40;64.45;101204.88;5067870;28;19909;-80
2022/06/07 08:57:56;;;;;;;;;;;;;;;22.30;65.00;101201.19;5077145;28;19909;-81
2022/06/07 09:00:23;;;;;;;;;;;;;;;22.31;64.65;101192.38;5069313;28;20265;-81
2022/06/07 09:02:49;;;;;;;;;;;;;;;22.29;65.25;101199.44;5062819;28;19915;-81
2022/06/07 09:05:15;;;;;;;;;;;;;;;22.28;64.84;101200.28;5068728;28;19908;-81
2022/06/07 09:07:41;;;;;;;;;;;;;;;22.27;64.99;101202.94;5072239;28;20003;-81
2022/06/07 09:13:00;;;;;;;;;;;;;;;22.27;65.19;101197.63;5069093;28;19915;-81
2022/06/07 09:15:27;;;;;;;;;;;;;;;22.22;65.26;101199.28;5066726;28;19917;-82
2022/06/07 09:17:56;;;;;;;;;;;;;;;22.23;65.37;101202.00;5072833;28;19908;-81
2022/06/07 09:20:41;;;;;;;;;;;;;;;22.20;65.19;101199.25;5067204;28;19948;-81
2022/06/07 09:23:20;;;;;;;;;;;;;;;22.22;65.32;101210.81;5072172;28;20385;-81
2022/06/07 09:25:49;;;;;;;;;;;;;;;22.26;65.26;101211.78;5059199;28;19909;-80
2022/06/07 09:28:23;;;;;;;;;;;;;;;22.22;65.47;101202.81;5064345;28;19916;-81
2022/06/07 09:30:55;;;;;;;;;;;;;;;22.20;65.85;101215.22;5055070;28;19938;-81
2022/06/07 09:33:22;;;;;;;;;;;;;;;22.21;65.61;101211.69;5073326;28;19912;-81
2022/06/07 09:35:47;;;;;;;;;;;;;;;22.29;65.67;101210.06;5058748;28;19909;-81
2022/06/07 09:38:14;;;;;;;;;;;;;;;22.25;65.81;101207.34;5064309;28;19908;-81
2022/06/07 09:40:46;;;;;;;;;;;;;;;22.25;65.78;101204.69;5065371;28;19923;-81
2022/06/07 09:43:12;;;;;;;;;;;;;;;22.25;65.83;101207.34;5051782;28;19935;-81
2022/06/07 09:45:38;;;;;;;;;;;;;;;22.28;65.95;101204.72;5068289;28;20413;-80
2022/06/07 09:48:23;;;;;;;;;;;;;;;22.27;66.05;101205.63;5054238;28;19909;-81
2022/06/07 09:51:00;;;;;;;;;;;;;;;22.21;66.16;101201.06;5061631;28;19915;-81
2022/06/07 09:53:28;;;;;;;;;;;;;;;22.22;66.15;101207.25;5052447;28;20336;-80
2022/06/07 09:56:05;;;;;;;;;;;;;;;22.24;66.35;101202.88;5068163;28;19991;-81
2022/06/07 09:58:41;;;;;;;;;;;;;;;22.31;66.17;101196.78;5068471;28;19915;-81
2022/06/07 10:01:06;;;;;;;;;;;;;;;22.29;66.15;101206.53;5062727;28;20348;-81
2022/06/07 10:03:48;;;;;;;;;;;;;;;22.28;66.25;101200.28;5069277;28;19913;-81
2022/06/07 10:06:26;;;;;;;;;;;;;;;22.27;66.33;101198.50;5071524;28;20377;-82
2022/06/07 10:09:04;;;;;;;;;;;;;;;22.32;66.18;101202.13;5058221;28;19908;-81
2022/06/07 10:11:48;;;;;;;;;;;;;;;22.38;66.07;101206.63;5061242;28;19931;-81
2022/06/07 10:14:20;;;;;;;;;;;;;;;22.39;65.91;101199.53;5065913;28;19915;-81
2022/06/07 10:16:46;;;;;;;;;;;;;;;22.36;66.03;101200.41;5079842;28;20408;-81
2022/06/07 10:19:32;;;;;;;;;;;;;;;22.36;66.23;101195.97;5065857;28;19966;-81
2022/06/07 10:21:57;;;;;;;;;;;;;;;22.37;66.10;101196.84;5052008;28;19908;-82
2022/06/07 10:24:52;;;;;;;;;;;;;;;22.36;66.18;101192.41;5051425;28;19912;-82
2022/06/07 10:27:22;;;;;;;;;;;;;;;22.37;66.32;101186.19;5049277;28;20517;-82
2022/06/07 10:29:47;;;;;;;;;;;;;;;22.39;66.10;101187.13;5070651;28;19905;-81
2022/06/07 10:32:22;;;;;;;;;;;;;;;22.36;66.20;101184.44;5058131;28;19965;-81
2022/06/07 10:34:52;;;;;;;;;;;;;;;22.36;66.25;101187.09;5067247;28;19924;-81
2022/06/07 10:37:33;;;;;;;;;;;;;;;22.36;66.24;101181.75;5061056;28;19909;-81
2022/06/07 10:39:59;;;;;;;;;;;;;;;22.42;66.00;101181.84;5074987;28;19908;-82
2022/06/07 10:42:43;;;;;;;;;;;;;;;22.39;66.38;101173.81;5070469;28;19931;-82
2022/06/07 10:45:16;;;;;;;;;;;;;;;22.38;66.31;101174.69;5058578;28;20356;-82
2022/06/07 10:47:41;;;;;;;;;;;;;;;;;;5056553;28;19920;-82
2022/06/07 10:50:18;;;;;;;;;;;;;;;22.39;66.27;101173.81;5066612;28;19908;-82
2022/06/07 10:52:45;;;;;;;;;;;;;;;22.40;66.32;101169.41;5077515;28;19997;-82
2022/06/07 10:55:23;;;;;;;;;;;;;;;22.38;66.59;101179.13;5069909;28;19919;-82
2022/06/07 10:57:55;;;;;;;;;;;;;;;22.45;66.28;101176.53;5071371;28;20403;-82
2022/06/07 11:00:20;;;;;;;;;;;;;;;;;;5068437;28;20297;-82
2022/06/07 11:02:52;;;;;;;;;;;;;;;22.45;66.27;101173.88;5066855;28;19909;-82
2022/06/07 11:11:11;;;;;;;;;;;;;;;22.41;66.35;101172.06;5072648;28;19983;-82
2022/06/07 11:13:40;;;;;;;;;;;;;;;22.46;66.24;101154.41;5069864;28;19947;-83
2022/06/07 11:16:15;;;;;;;;;;;;;;;22.43;66.31;101161.44;5066700;28;19923;-81
2022/06/07 11:18:41;;;;;;;;;;;;;;;22.43;66.43;101159.66;5077827;28;20400;-82
2022/06/07 11:21:06;;;;;;;;;;;;;;;22.44;66.23;101158.81;5064697;28;20390;-82
2022/06/07 11:23:32;;;;;;;;;;;;;;;22.38;66.42;101150.75;5063708;28;20027;-82
2022/06/07 11:25:59;;;;;;;;;;;;;;;22.46;66.21;101148.19;5053236;28;20282;-81
2022/06/07 11:28:26;;;;;;;;;;;;;;;22.49;66.19;101146.44;5061733;28;19908;-82
2022/06/07 11:30:54;;;;;;;;;;;;;;;22.47;66.22;101145.50;5055823;28;20374;-82
2022/06/07 11:33:30;;;;;;;;;;;;;;;22.45;66.37;101146.38;5061656;28;19909;-82
2022/06/07 11:36:15;;;;;;;;;;;;;;;22.49;66.19;101141.09;5065134;28;20390;-82
2022/06/07 11:38:40;;;;;;;;;;;;;;;;;;5062289;28;19965;-82
2022/06/07 11:41:36;;;;;;;;;;;;;;;22.43;66.29;101140.16;5054520;28;19909;-82
2022/06/07 11:44:22;;;;;;;;;;;;;;;22.50;66.15;101139.31;5064262;28;19962;-82
2022/06/07 11:46:47;;;;;;;;;;;;;;;22.46;66.29;101132.22;5068495;28;19921;-82
2022/06/07 11:49:19;;;;;;;;;;;;;;;22.44;66.33;101137.50;5063948;28;19935;-83
2022/06/07 11:51:54;;;;;;;;;;;;;;;22.53;66.15;101131.41;5064660;28;19952;-81
2022/06/07 11:54:21;;;;;;;;;;;;;;;22.51;66.20;101133.16;5060883;28;19962;-82
2022/06/07 11:56:47;;;;;;;;;;;;;;;22.52;66.11;101125.19;5077973;28;20276;-81
2022/06/07 11:59:18;;;;;;;;;;;;;;;22.52;66.20;101125.19;5065988;28;19916;-81
2022/06/07 12:01:48;;;;;;;;;;;;;;;22.49;66.34;101122.47;5073027;28;19939;-79
2022/06/07 12:04:31;;;;;;;;;;;;;;;22.48;66.39;101127.78;5084057;28;19965;-80
2022/06/07 12:06:57;;;;;;;;;;;;;;;22.44;66.43;101124.22;5073041;28;19966;-81
2022/06/07 12:09:23;;;;;;;;;;;;;;;22.53;66.21;101121.63;5073642;28;19999;-82
2022/06/07 12:11:51;;;;;;;;;;;;;;;22.46;66.46;101117.13;5073670;28;19955;-83
2022/06/07 12:14:37;;;;;;;;;;;;;;;22.52;66.24;101117.19;5071022;28;19944;-82
2022/06/07 12:17:04;;;;;;;;;;;;;;;22.50;66.41;101116.28;5065674;28;19975;-82
2022/06/07 12:19:34;;;;;;;;;;;;;;;22.49;66.32;101118.94;5070550;28;20018;-82
2022/06/07 12:22:11;;;;;;;;;;;;;;;22.50;66.34;101112.72;5074088;28;19912;-82
2022/06/07 12:24:42;;;;;;;;;;;;;;;22.48;66.51;101104.75;5054951;28;20397;-82
2022/06/07 12:27:26;;;;;;;;;;;;;;;22.46;66.46;101111.81;5069455;28;19924;-82
2022/06/07 12:29:54;;;;;;;;;;;;;;;22.49;66.42;101114.50;5071245;28;19915;-82
2022/06/07 12:32:40;;;;;;;;;;;;;;;22.50;66.55;101099.41;5085699;28;19908;-82
2022/06/07 12:35:16;;;;;;;;;;;;;;;22.50;66.52;101102.97;5072184;28;20408;-82
2022/06/07 12:37:44;;;;;;;;;;;;;;;22.50;66.60;101099.41;5073035;28;19915;-82
2022/06/07 12:40:27;;;;;;;;;;;;;;;22.49;66.61;101100.31;5074221;28;19915;-82
2022/06/07 12:42:53;;;;;;;;;;;;;;;22.47;66.91;101104.72;5076442;28;19999;-81
2022/06/07 12:45:26;;;;;;;;;;;;;;;22.51;66.71;101106.53;5057928;28;20007;-81
2022/06/07 12:47:59;;;;;;;;;;;;;;;22.51;66.60;101106.53;5064288;28;19959;-82
2022/06/07 12:50:35;;;;;;;;;;;;;;;22.56;66.57;101102.13;5073005;28;19912;-83
2022/06/07 12:53:00;;;;;;;;;;;;;;;22.58;66.44;101094.16;5074138;28;19915;-82
2022/06/07 12:55:28;;;;;;;;;;;;;;;22.51;66.63;101101.22;5078541;28;20007;-82
2022/06/07 12:57:55;;;;;;;;;;;;;;;22.53;66.65;101089.69;5061702;28;19909;-82
2022/06/07 13:00:22;;;;;;;;;;;;;;;22.49;66.73;101098.53;5070262;28;19908;-82
2022/06/07 13:03:01;;;;;;;;;;;;;;;22.51;66.79;101095.88;5067764;28;20553;-82
2022/06/07 13:05:28;;;;;;;;;;;;;;;22.52;66.80;101090.59;5069932;28;19909;-82